sensor_id;sensor_type;location;lat;lon;timestamp;pressure;altitude;pressure_sealevel;temperature;humidity
47985;BME280;33753;52.912;-7.342;2023-04-15T00:00:56;100272.50;;;2.05;100.00
47985;BME280;33753;52.912;-7.342;2023-04-15T00:03:25;100279.19;;;2.00;100.00
47985;BME280;33753;52.912;-7.342;2023-04-15T00:05:56;100264.03;;;1.89;100.00
47985;BME280;33753;52.912;-7.342;2023-04-15T00:08:25;100271.41;;;1.85;100.00
47985;BME280;33753;52.912;-7.342;2023-04-15T00:10:54;100262.81;;;1.82;100.00
47985;BME280;33753;52.912;-7.342;2023-04-15T00:13:25;100264.63;;;1.81;100.00
47985;BME280;33753;52.912;-7.342;2023-04-15T00:15:53;100271.91;;;1.79;100.00
47985;BME280;33753;52.912;-7.342;2023-04-15T00:18:22;100270.19;;;1.78;100.00
47985;BME280;33753;52.912;-7.342;2023-04-15T00:20:50;100276.28;;;1.80;100.00
47985;BME280;33753;52.912;-7.342;2023-04-15T00:23:20;100288.16;;;1.76;100.00
47985;BME280;33753;52.912;-7.342;2023-04-15T00:25:49;100286.69;;;1.72;100.00
47985;BME280;33753;52.912;-7.342;2023-04-15T00:28:18;100279.66;;;1.71;100.00
47985;BME280;33753;52.912;-7.342;2023-04-15T00:30:47;100286.94;;;1.69;100.00
47985;BME280;33753;52.912;-7.342;2023-04-15T00:33:15;100292.50;;;1.66;100.00
47985;BME280;33753;52.912;-7.342;2023-04-15T00:35:43;100293.47;;;1.65;100.00
47985;BME280;33753;52.912;-7.342;2023-04-15T00:38:11;100283.75;;;1.64;100.00
47985;BME280;33753;52.912;-7.342;2023-04-15T00:40:42;100289.84;;;1.66;100.00
47985;BME280;33753;52.912;-7.342;2023-04-15T00:43:10;100289.09;;;1.64;100.00
47985;BME280;33753;52.912;-7.342;2023-04-15T00:45:39;100283.03;;;1.62;100.00
47985;BME280;33753;52.912;-7.342;2023-04-15T00:48:09;100292.13;;;1.59;100.00
47985;BME280;33753;52.912;-7.342;2023-04-15T00:50:38;100294.28;;;1.54;100.00
47985;BME280;33753;52.912;-7.342;2023-04-15T00:53:07;100287.72;;;1.47;100.00
47985;BME280;33753;52.912;-7.342;2023-04-15T00:55:37;100292.44;;;1.43;100.00
47985;BME280;33753;52.912;-7.342;2023-04-15T00:58:07;100292.69;;;1.40;100.00
47985;BME280;33753;52.912;-7.342;2023-04-15T01:00:36;100291.22;;;1.36;100.00
47985;BME280;33753;52.912;-7.342;2023-04-15T01:03:04;100291.88;;;1.27;100.00
47985;BME280;33753;52.912;-7.342;2023-04-15T01:05:33;100307.28;;;1.23;100.00
47985;BME280;33753;52.912;-7.342;2023-04-15T01:08:01;100303.97;;;1.19;100.00
47985;BME280;33753;52.912;-7.342;2023-04-15T01:10:30;100303.47;;;1.14;100.00
47985;BME280;33753;52.912;-7.342;2023-04-15T01:12:59;100310.84;;;1.11;100.00
47985;BME280;33753;52.912;-7.342;2023-04-15T01:15:28;100312.88;;;1.07;100.00
47985;BME280;33753;52.912;-7.342;2023-04-15T01:17:58;100314.81;;;1.05;100.00
47985;BME280;33753;52.912;-7.342;2023-04-15T01:20:27;100317.38;;;1.07;100.00
47985;BME280;33753;52.912;-7.342;2023-04-15T01:22:56;100307.06;;;1.02;100.00
47985;BME280;33753;52.912;-7.342;2023-04-15T01:25:30;100321.31;;;1.01;100.00
47985;BME280;33753;52.912;-7.342;2023-04-15T01:27:59;100326.78;;;0.99;100.00
47985;BME280;33753;52.912;-7.342;2023-04-15T01:30:28;100329.56;;;0.98;100.00
47985;BME280;33753;52.912;-7.342;2023-04-15T01:33:00;100326.16;;;0.96;100.00
47985;BME280;33753;52.912;-7.342;2023-04-15T01:35:47;100336.81;;;0.96;100.00
47985;BME280;33753;52.912;-7.342;2023-04-15T01:38:15;100334.34;;;0.93;100.00
47985;BME280;33753;52.912;-7.342;2023-04-15T01:40:45;100333.63;;;0.91;100.00
47985;BME280;33753;52.912;-7.342;2023-04-15T01:43:15;100324.38;;;0.83;100.00
47985;BME280;33753;52.912;-7.342;2023-04-15T01:45:44;100326.22;;;0.83;100.00
47985;BME280;33753;52.912;-7.342;2023-04-15T01:48:14;100336.88;;;0.83;100.00
47985;BME280;33753;52.912;-7.342;2023-04-15T01:50:44;100337.69;;;0.83;100.00
47985;BME280;33753;52.912;-7.342;2023-04-15T01:53:14;100341.44;;;0.81;100.00
47985;BME280;33753;52.912;-7.342;2023-04-15T01:55:45;100344.09;;;0.81;100.00
47985;BME280;33753;52.912;-7.342;2023-04-15T01:58:15;100347.00;;;0.78;100.00
47985;BME280;33753;52.912;-7.342;2023-04-15T02:00:45;100341.25;;;0.71;100.00
47985;BME280;33753;52.912;-7.342;2023-04-15T02:03:16;100353.06;;;0.67;100.00
47985;BME280;33753;52.912;-7.342;2023-04-15T02:05:46;100352.56;;;0.62;100.00
47985;BME280;33753;52.912;-7.342;2023-04-15T02:08:15;100359.91;;;0.58;100.00
47985;BME280;33753;52.912;-7.342;2023-04-15T02:10:46;100362.34;;;0.61;100.00
47985;BME280;33753;52.912;-7.342;2023-04-15T02:13:16;100357.91;;;0.62;100.00
47985;BME280;33753;52.912;-7.342;2023-04-15T02:15:46;100357.91;;;0.62;100.00
47985;BME280;33753;52.912;-7.342;2023-04-15T02:18:19;100358.84;;;0.61;100.00
47985;BME280;33753;52.912;-7.342;2023-04-15T02:20:50;100353.28;;;0.64;100.00
47985;BME280;33753;52.912;-7.342;2023-04-15T02:23:20;100367.97;;;0.69;100.00
47985;BME280;33753;52.912;-7.342;2023-04-15T02:25:51;100373.94;;;0.73;100.00
47985;BME280;33753;52.912;-7.342;2023-04-15T02:28:21;100370.31;;;0.74;100.00
47985;BME280;33753;52.912;-7.342;2023-04-15T02:30:51;100363.31;;;0.73;100.00
47985;BME280;33753;52.912;-7.342;2023-04-15T02:33:23;100375.75;;;0.73;100.00
47985;BME280;33753;52.912;-7.342;2023-04-15T02:35:52;100385.53;;;0.72;100.00
47985;BME280;33753;52.912;-7.342;2023-04-15T02:38:22;100381.06;;;0.73;100.00
47985;BME280;33753;52.912;-7.342;2023-04-15T02:40:54;100382.66;;;0.75;100.00
47985;BME280;33753;52.912;-7.342;2023-04-15T02:43:24;100392.69;;;0.72;100.00
47985;BME280;33753;52.912;-7.342;2023-04-15T02:45:54;100394.72;;;0.68;100.00
47985;BME280;33753;52.912;-7.342;2023-04-15T02:48:23;100395.56;;;0.68;100.00
47985;BME280;33753;52.912;-7.342;2023-04-15T02:51:10;100398.56;;;0.64;100.00
47985;BME280;33753;52.912;-7.342;2023-04-15T02:53:39;100387.91;;;0.64;100.00
47985;BME280;33753;52.912;-7.342;2023-04-15T02:56:11;100391.44;;;0.64;100.00
47985;BME280;33753;52.912;-7.342;2023-04-15T02:58:43;100398.03;;;0.59;100.00
47985;BME280;33753;52.912;-7.342;2023-04-15T03:01:13;100403.78;;;0.52;100.00
47985;BME280;33753;52.912;-7.342;2023-04-15T03:03:43;100402.19;;;0.50;100.00
47985;BME280;33753;52.912;-7.342;2023-04-15T03:06:12;100400.59;;;0.47;100.00
47985;BME280;33753;52.912;-7.342;2023-04-15T03:08:42;100400.59;;;0.47;100.00
47985;BME280;33753;52.912;-7.342;2023-04-15T03:11:15;100412.94;;;0.48;100.00
47985;BME280;33753;52.912;-7.342;2023-04-15T03:13:45;100413.16;;;0.45;100.00
47985;BME280;33753;52.912;-7.342;2023-04-15T03:16:27;100418.81;;;0.41;100.00
47985;BME280;33753;52.912;-7.342;2023-04-15T03:18:58;100419.13;;;0.36;100.00
47985;BME280;33753;52.912;-7.342;2023-04-15T03:21:28;100424.47;;;0.36;100.00
47985;BME280;33753;52.912;-7.342;2023-04-15T03:23:58;100427.22;;;0.34;100.00
47985;BME280;33753;52.912;-7.342;2023-04-15T03:26:31;100431.69;;;0.34;100.00
47985;BME280;33753;52.912;-7.342;2023-04-15T03:29:10;100436.25;;;0.32;100.00
47985;BME280;33753;52.912;-7.342;2023-04-15T03:31:40;100444.47;;;0.29;100.00
47985;BME280;33753;52.912;-7.342;2023-04-15T03:34:11;100445.63;;;0.25;100.00
47985;BME280;33753;52.912;-7.342;2023-04-15T03:36:41;100446.78;;;0.21;100.00
47985;BME280;33753;52.912;-7.342;2023-04-15T03:39:10;100462.00;;;0.19;100.00
47985;BME280;33753;52.912;-7.342;2023-04-15T03:41:41;100459.53;;;0.15;100.00
47985;BME280;33753;52.912;-7.342;2023-04-15T03:44:11;100468.69;;;0.11;100.00
47985;BME280;33753;52.912;-7.342;2023-04-15T03:46:41;100474.97;;;0.10;100.00
47985;BME280;33753;52.912;-7.342;2023-04-15T03:49:10;100469.88;;;0.07;100.00
47985;BME280;33753;52.912;-7.342;2023-04-15T03:51:40;100462.06;;;0.04;100.00
47985;BME280;33753;52.912;-7.342;2023-04-15T03:54:10;100452.69;;;-0.02;100.00
47985;BME280;33753;52.912;-7.342;2023-04-15T03:56:43;100445.91;;;-0.06;100.00
47985;BME280;33753;52.912;-7.342;2023-04-15T03:59:13;100457.59;;;-0.08;100.00
47985;BME280;33753;52.912;-7.342;2023-04-15T04:01:43;100460.25;;;-0.08;100.00
47985;BME280;33753;52.912;-7.342;2023-04-15T04:04:13;100463.75;;;-0.08;100.00
47985;BME280;33753;52.912;-7.342;2023-04-15T04:06:43;100471.63;;;-0.06;100.00
47985;BME280;33753;52.912;-7.342;2023-04-15T04:09:12;100469.09;;;-0.08;100.00
47985;BME280;33753;52.912;-7.342;2023-04-15T04:11:44;100466.31;;;-0.06;100.00
47985;BME280;33753;52.912;-7.342;2023-04-15T04:14:13;100474.41;;;-0.08;100.00
47985;BME280;33753;52.912;-7.342;2023-04-15T04:16:43;100468.34;;;-0.10;100.00
47985;BME280;33753;52.912;-7.342;2023-04-15T04:19:13;100464.91;;;-0.12;100.00
47985;BME280;33753;52.912;-7.342;2023-04-15T04:21:46;100469.41;;;-0.12;100.00
47985;BME280;33753;52.912;-7.342;2023-04-15T04:24:16;100473.94;;;-0.14;100.00
47985;BME280;33753;52.912;-7.342;2023-04-15T04:26:47;100477.47;;;-0.14;100.00
47985;BME280;33753;52.912;-7.342;2023-04-15T04:29:17;100477.69;;;-0.17;100.00
47985;BME280;33753;52.912;-7.342;2023-04-15T04:31:47;100477.13;;;-0.22;100.00
47985;BME280;33753;52.912;-7.342;2023-04-15T04:34:17;100483.38;;;-0.23;100.00
47985;BME280;33753;52.912;-7.342;2023-04-15T04:36:46;100487.88;;;-0.24;100.00
47985;BME280;33753;52.912;-7.342;2023-04-15T04:39:16;100493.19;;;-0.24;100.00
47985;BME280;33753;52.912;-7.342;2023-04-15T04:41:45;100486.03;;;-0.23;100.00
47985;BME280;33753;52.912;-7.342;2023-04-15T04:44:16;100489.47;;;-0.21;100.00
47985;BME280;33753;52.912;-7.342;2023-04-15T04:46:46;100493.91;;;-0.22;100.00
47985;BME280;33753;52.912;-7.342;2023-04-15T04:49:15;100497.56;;;-0.23;100.00
47985;BME280;33753;52.912;-7.342;2023-04-15T04:51:45;100499.44;;;-0.25;100.00
47985;BME280;33753;52.912;-7.342;2023-04-15T04:54:16;100486.16;;;-0.25;100.00
47985;BME280;33753;52.912;-7.342;2023-04-15T04:56:46;100500.38;;;-0.26;100.00
47985;BME280;33753;52.912;-7.342;2023-04-15T04:59:17;100498.81;;;-0.28;100.00
47985;BME280;33753;52.912;-7.342;2023-04-15T05:01:46;100496.34;;;-0.31;100.00
47985;BME280;33753;52.912;-7.342;2023-04-15T05:04:16;100506.13;;;-0.32;100.00
47985;BME280;33753;52.912;-7.342;2023-04-15T05:06:46;100511.44;;;-0.32;100.00
47985;BME280;33753;52.912;-7.342;2023-04-15T05:09:15;100516.75;;;-0.32;100.00
47985;BME280;33753;52.912;-7.342;2023-04-15T05:11:45;100518.56;;;-0.32;100.00
47985;BME280;33753;52.912;-7.342;2023-04-15T05:14:14;100521.97;;;-0.30;100.00
47985;BME280;33753;52.912;-7.342;2023-04-15T05:16:46;100523.66;;;-0.29;100.00
47985;BME280;33753;52.912;-7.342;2023-04-15T05:19:15;100530.03;;;-0.32;100.00
47985;BME280;33753;52.912;-7.342;2023-04-15T05:21:45;100530.44;;;-0.38;100.00
47985;BME280;33753;52.912;-7.342;2023-04-15T05:24:15;100532.91;;;-0.35;100.00
47985;BME280;33753;52.912;-7.342;2023-04-15T05:26:45;100540.56;;;-0.30;100.00
47985;BME280;33753;52.912;-7.342;2023-04-15T05:29:15;100549.09;;;-0.25;100.00
47985;BME280;33753;52.912;-7.342;2023-04-15T05:31:46;100556.78;;;-0.21;100.00
47985;BME280;33753;52.912;-7.342;2023-04-15T05:34:15;100559.44;;;-0.21;100.00
47985;BME280;33753;52.912;-7.342;2023-04-15T05:36:45;100566.47;;;-0.20;100.00
47985;BME280;33753;52.912;-7.342;2023-04-15T05:39:15;100570.06;;;-0.21;100.00
47985;BME280;33753;52.912;-7.342;2023-04-15T05:41:45;100568.34;;;-0.22;100.00
47985;BME280;33753;52.912;-7.342;2023-04-15T05:44:15;100571.97;;;-0.23;100.00
47985;BME280;33753;52.912;-7.342;2023-04-15T05:46:45;100587.72;;;-0.20;100.00
47985;BME280;33753;52.912;-7.342;2023-04-15T05:49:15;100591.31;;;-0.21;100.00
47985;BME280;33753;52.912;-7.342;2023-04-15T05:51:46;100590.28;;;-0.18;100.00
47985;BME280;33753;52.912;-7.342;2023-04-15T05:54:17;100592.00;;;-0.17;100.00
47985;BME280;33753;52.912;-7.342;2023-04-15T05:56:47;100600.72;;;-0.15;100.00
47985;BME280;33753;52.912;-7.342;2023-04-15T05:59:17;100596.06;;;-0.11;100.00
47985;BME280;33753;52.912;-7.342;2023-04-15T06:01:48;100608.84;;;-0.04;100.00
47985;BME280;33753;52.912;-7.342;2023-04-15T06:04:19;100603.13;;;0.03;100.00
47985;BME280;33753;52.912;-7.342;2023-04-15T06:06:49;100607.97;;;0.10;100.00
47985;BME280;33753;52.912;-7.342;2023-04-15T06:09:19;100623.91;;;0.38;100.00
47985;BME280;33753;52.912;-7.342;2023-04-15T06:11:48;100626.13;;;0.84;100.00
47985;BME280;33753;52.912;-7.342;2023-04-15T06:14:18;100635.94;;;1.35;100.00
47985;BME280;33753;52.912;-7.342;2023-04-15T06:16:49;100653.00;;;1.95;100.00
47985;BME280;33753;52.912;-7.342;2023-04-15T06:19:18;100664.84;;;2.52;100.00
47985;BME280;33753;52.912;-7.342;2023-04-15T06:21:49;100672.81;;;3.12;100.00
47985;BME280;33753;52.912;-7.342;2023-04-15T06:24:18;100683.94;;;3.75;100.00
47985;BME280;33753;52.912;-7.342;2023-04-15T06:26:48;100701.28;;;4.38;100.00
47985;BME280;33753;52.912;-7.342;2023-04-15T06:29:18;100720.03;;;5.02;100.00
47985;BME280;33753;52.912;-7.342;2023-04-15T06:31:49;100717.91;;;5.69;100.00
47985;BME280;33753;52.912;-7.342;2023-04-15T06:34:19;100725.94;;;6.31;100.00
47985;BME280;33753;52.912;-7.342;2023-04-15T06:36:49;100723.91;;;6.84;100.00
47985;BME280;33753;52.912;-7.342;2023-04-15T06:39:19;100727.69;;;7.40;100.00
47985;BME280;33753;52.912;-7.342;2023-04-15T06:41:48;100733.66;;;7.91;100.00
47985;BME280;33753;52.912;-7.342;2023-04-15T06:44:21;100745.50;;;8.45;100.00
47985;BME280;33753;52.912;-7.342;2023-04-15T06:46:52;100746.94;;;9.04;100.00
47985;BME280;33753;52.912;-7.342;2023-04-15T06:49:22;100759.22;;;9.60;100.00
47985;BME280;33753;52.912;-7.342;2023-04-15T06:51:51;100756.66;;;10.11;100.00
47985;BME280;33753;52.912;-7.342;2023-04-15T06:54:21;100752.31;;;10.61;100.00
47985;BME280;33753;52.912;-7.342;2023-04-15T06:56:51;100750.91;;;11.16;100.00
47985;BME280;33753;52.912;-7.342;2023-04-15T06:59:20;100750.84;;;11.74;100.00
47985;BME280;33753;52.912;-7.342;2023-04-15T07:01:51;100724.31;;;12.25;100.00
47985;BME280;33753;52.912;-7.342;2023-04-15T07:04:21;100704.69;;;12.78;100.00
47985;BME280;33753;52.912;-7.342;2023-04-15T07:06:51;100692.41;;;13.28;100.00
47985;BME280;33753;52.912;-7.342;2023-04-15T07:09:21;100655.66;;;13.71;100.00
47985;BME280;33753;52.912;-7.342;2023-04-15T07:11:51;100640.41;;;14.21;100.00
47985;BME280;33753;52.912;-7.342;2023-04-15T07:14:21;100648.28;;;14.67;100.00
47985;BME280;33753;52.912;-7.342;2023-04-15T07:16:52;100642.41;;;15.14;100.00
47985;BME280;33753;52.912;-7.342;2023-04-15T07:19:22;100608.22;;;15.40;100.00
47985;BME280;33753;52.912;-7.342;2023-04-15T07:21:51;100603.34;;;15.63;100.00
47985;BME280;33753;52.912;-7.342;2023-04-15T07:24:21;100607.06;;;15.97;100.00
47985;BME280;33753;52.912;-7.342;2023-04-15T07:26:53;100603.19;;;16.20;100.00
47985;BME280;33753;52.912;-7.342;2023-04-15T07:29:27;100605.50;;;16.30;100.00
47985;BME280;33753;52.912;-7.342;2023-04-15T07:31:58;100606.13;;;16.32;100.00
47985;BME280;33753;52.912;-7.342;2023-04-15T07:34:28;100610.81;;;16.51;100.00
47985;BME280;33753;52.912;-7.342;2023-04-15T07:36:59;100604.50;;;16.57;100.00
47985;BME280;33753;52.912;-7.342;2023-04-15T07:39:29;100606.41;;;16.70;100.00
47985;BME280;33753;52.912;-7.342;2023-04-15T07:41:58;100610.06;;;16.91;100.00
47985;BME280;33753;52.912;-7.342;2023-04-15T07:44:29;100622.25;;;17.08;100.00
47985;BME280;33753;52.912;-7.342;2023-04-15T07:47:01;100625.59;;;17.17;100.00
47985;BME280;33753;52.912;-7.342;2023-04-15T07:49:32;100613.81;;;17.43;100.00
47985;BME280;33753;52.912;-7.342;2023-04-15T07:52:01;100621.75;;;17.58;100.00
47985;BME280;33753;52.912;-7.342;2023-04-15T07:54:31;100623.06;;;17.49;100.00
47985;BME280;33753;52.912;-7.342;2023-04-15T07:57:00;100619.63;;;17.74;100.00
47985;BME280;33753;52.912;-7.342;2023-04-15T07:59:30;100625.53;;;17.64;100.00
47985;BME280;33753;52.912;-7.342;2023-04-15T08:02:02;100624.63;;;17.84;100.00
47985;BME280;33753;52.912;-7.342;2023-04-15T08:04:32;100623.78;;;17.96;100.00
47985;BME280;33753;52.912;-7.342;2023-04-15T08:07:02;100622.88;;;18.09;100.00
47985;BME280;33753;52.912;-7.342;2023-04-15T08:09:32;100630.78;;;18.31;100.00
47985;BME280;33753;52.912;-7.342;2023-04-15T08:12:03;100631.34;;;18.46;100.00
47985;BME280;33753;52.912;-7.342;2023-04-15T08:14:32;100630.72;;;18.76;100.00
47985;BME280;33753;52.912;-7.342;2023-04-15T08:17:04;100640.44;;;19.04;100.00
47985;BME280;33753;52.912;-7.342;2023-04-15T08:19:33;100630.47;;;19.35;100.00
47985;BME280;33753;52.912;-7.342;2023-04-15T08:22:03;100632.84;;;19.50;100.00
47985;BME280;33753;52.912;-7.342;2023-04-15T08:24:37;100635.72;;;19.99;100.00
47985;BME280;33753;52.912;-7.342;2023-04-15T08:27:07;100633.88;;;20.11;100.00
47985;BME280;33753;52.912;-7.342;2023-04-15T08:29:37;100635.84;;;20.53;100.00
47985;BME280;33753;52.912;-7.342;2023-04-15T08:32:09;100637.44;;;20.91;100.00
47985;BME280;33753;52.912;-7.342;2023-04-15T08:34:39;100630.78;;;21.11;100.00
47985;BME280;33753;52.912;-7.342;2023-04-15T08:37:09;100632.81;;;21.39;100.00
47985;BME280;33753;52.912;-7.342;2023-04-15T08:39:39;100624.19;;;21.47;100.00
47985;BME280;33753;52.912;-7.342;2023-04-15T08:42:11;100623.00;;;21.31;100.00
47985;BME280;33753;52.912;-7.342;2023-04-15T08:44:45;100623.69;;;21.86;100.00
47985;BME280;33753;52.912;-7.342;2023-04-15T08:47:19;100615.13;;;21.58;100.00
47985;BME280;33753;52.912;-7.342;2023-04-15T08:49:51;100617.94;;;21.87;100.00
47985;BME280;33753;52.912;-7.342;2023-04-15T08:52:24;100626.53;;;22.03;100.00
47985;BME280;33753;52.912;-7.342;2023-04-15T08:54:56;100632.59;;;22.17;100.00
47985;BME280;33753;52.912;-7.342;2023-04-15T08:57:27;100634.31;;;22.06;100.00
47985;BME280;33753;52.912;-7.342;2023-04-15T08:59:57;100635.69;;;22.20;100.00
47985;BME280;33753;52.912;-7.342;2023-04-15T09:02:28;100629.63;;;22.47;100.00
47985;BME280;33753;52.912;-7.342;2023-04-15T09:04:58;100635.75;;;22.95;100.00
47985;BME280;33753;52.912;-7.342;2023-04-15T09:07:28;100636.91;;;22.82;100.00
47985;BME280;33753;52.912;-7.342;2023-04-15T09:09:58;100629.78;;;23.03;100.00
47985;BME280;33753;52.912;-7.342;2023-04-15T09:12:27;100634.72;;;23.01;100.00
47985;BME280;33753;52.912;-7.342;2023-04-15T09:14:57;100641.13;;;22.73;100.00
47985;BME280;33753;52.912;-7.342;2023-04-15T09:17:32;100630.44;;;22.59;100.00
47985;BME280;33753;52.912;-7.342;2023-04-15T09:20:09;100641.75;;;22.46;100.00
47985;BME280;33753;52.912;-7.342;2023-04-15T09:22:41;100643.59;;;22.57;100.00
47985;BME280;33753;52.912;-7.342;2023-04-15T09:25:25;100648.97;;;22.23;100.00
47985;BME280;33753;52.912;-7.342;2023-04-15T09:27:56;100654.50;;;22.35;100.00
47985;BME280;33753;52.912;-7.342;2023-04-15T09:30:26;100656.13;;;22.48;100.00
47985;BME280;33753;52.912;-7.342;2023-04-15T09:32:59;100656.13;;;22.48;100.00
47985;BME280;33753;52.912;-7.342;2023-04-15T09:35:29;100649.69;;;21.90;100.00
47985;BME280;33753;52.912;-7.342;2023-04-15T09:38:03;100649.38;;;22.15;100.00
47985;BME280;33753;52.912;-7.342;2023-04-15T09:40:36;100652.06;;;21.98;100.00
47985;BME280;33753;52.912;-7.342;2023-04-15T09:43:07;100650.91;;;21.82;100.00
47985;BME280;33753;52.912;-7.342;2023-04-15T09:45:46;100654.09;;;21.32;100.00
47985;BME280;33753;52.912;-7.342;2023-04-15T09:48:19;100654.91;;;21.09;100.00
47985;BME280;33753;52.912;-7.342;2023-04-15T09:50:49;100659.13;;;21.11;100.00
47985;BME280;33753;52.912;-7.342;2023-04-15T09:53:22;100655.53;;;21.22;100.00
47985;BME280;33753;52.912;-7.342;2023-04-15T09:55:54;100653.66;;;21.35;100.00
47985;BME280;33753;52.912;-7.342;2023-04-15T09:58:25;100651.09;;;21.21;100.00
47985;BME280;33753;52.912;-7.342;2023-04-15T10:00:56;100647.66;;;21.50;100.00
47985;BME280;33753;52.912;-7.342;2023-04-15T10:03:29;100650.50;;;21.43;100.00
47985;BME280;33753;52.912;-7.342;2023-04-15T10:06:00;100647.41;;;21.28;100.00
47985;BME280;33753;52.912;-7.342;2023-04-15T10:08:32;100655.38;;;20.94;100.00
47985;BME280;33753;52.912;-7.342;2023-04-15T10:11:03;100649.47;;;20.78;100.00
47985;BME280;33753;52.912;-7.342;2023-04-15T10:13:34;100655.97;;;20.96;100.00
47985;BME280;33753;52.912;-7.342;2023-04-15T10:16:06;100658.47;;;20.85;100.00
47985;BME280;33753;52.912;-7.342;2023-04-15T10:18:42;100662.69;;;21.00;100.00
47985;BME280;33753;52.912;-7.342;2023-04-15T10:21:13;100647.53;;;20.67;100.00
47985;BME280;33753;52.912;-7.342;2023-04-15T10:23:46;100656.50;;;20.74;100.00
47985;BME280;33753;52.912;-7.342;2023-04-15T10:26:16;100651.03;;;20.74;100.00
47985;BME280;33753;52.912;-7.342;2023-04-15T10:28:46;100660.56;;;20.23;100.00
47985;BME280;33753;52.912;-7.342;2023-04-15T10:31:16;100647.97;;;20.33;100.00
47985;BME280;33753;52.912;-7.342;2023-04-15T10:33:48;100644.84;;;20.30;100.00
47985;BME280;33753;52.912;-7.342;2023-04-15T10:36:19;100649.03;;;20.32;100.00
47985;BME280;33753;52.912;-7.342;2023-04-15T10:38:49;100648.81;;;20.34;100.00
47985;BME280;33753;52.912;-7.342;2023-04-15T10:41:21;100658.59;;;20.30;100.00
47985;BME280;33753;52.912;-7.342;2023-04-15T10:43:52;100655.69;;;19.88;100.00
47985;BME280;33753;52.912;-7.342;2023-04-15T10:46:23;100655.00;;;19.30;100.00
47985;BME280;33753;52.912;-7.342;2023-04-15T10:48:55;100652.59;;;19.59;100.00
47985;BME280;33753;52.912;-7.342;2023-04-15T10:51:30;100652.16;;;19.18;100.00
47985;BME280;33753;52.912;-7.342;2023-04-15T10:54:00;100659.28;;;18.62;100.00
47985;BME280;33753;52.912;-7.342;2023-04-15T10:56:30;100656.03;;;18.33;100.00
47985;BME280;33753;52.912;-7.342;2023-04-15T10:59:00;100655.34;;;18.44;100.00
47985;BME280;33753;52.912;-7.342;2023-04-15T11:01:51;100644.56;;;18.11;100.00
47985;BME280;33753;52.912;-7.342;2023-04-15T11:04:51;100655.78;;;17.83;100.00
47985;BME280;33753;52.912;-7.342;2023-04-15T11:07:35;100657.47;;;17.77;100.00
47985;BME280;33753;52.912;-7.342;2023-04-15T11:13:31;100671.19;;;17.50;100.00
47985;BME280;33753;52.912;-7.342;2023-04-15T11:16:01;100665.53;;;17.32;100.00
47985;BME280;33753;52.912;-7.342;2023-04-15T11:18:34;100661.34;;;17.22;100.00
47985;BME280;33753;52.912;-7.342;2023-04-15T11:21:07;100665.53;;;17.12;100.00
47985;BME280;33753;52.912;-7.342;2023-04-15T11:23:39;100667.00;;;17.07;100.00
47985;BME280;33753;52.912;-7.342;2023-04-15T11:26:11;100666.59;;;17.24;100.00
47985;BME280;33753;52.912;-7.342;2023-04-15T11:28:43;100675.03;;;17.22;100.00
47985;BME280;33753;52.912;-7.342;2023-04-15T11:31:14;100672.69;;;17.26;100.00
47985;BME280;33753;52.912;-7.342;2023-04-15T11:33:52;100667.22;;;17.33;100.00
47985;BME280;33753;52.912;-7.342;2023-04-15T11:36:25;100664.28;;;17.07;100.00
47985;BME280;33753;52.912;-7.342;2023-04-15T11:38:56;100661.97;;;16.91;100.00
47985;BME280;33753;52.912;-7.342;2023-04-15T11:41:26;100675.59;;;16.78;100.00
47985;BME280;33753;52.912;-7.342;2023-04-15T11:43:56;100678.09;;;16.79;100.00
47985;BME280;33753;52.912;-7.342;2023-04-15T11:46:29;100676.31;;;16.45;100.00
47985;BME280;33753;52.912;-7.342;2023-04-15T11:49:00;100673.06;;;16.14;100.00
47985;BME280;33753;52.912;-7.342;2023-04-15T11:51:33;100676.38;;;15.75;100.00
47985;BME280;33753;52.912;-7.342;2023-04-15T11:54:02;100675.00;;;15.57;100.00
47985;BME280;33753;52.912;-7.342;2023-04-15T11:56:31;100685.72;;;15.30;100.00
47985;BME280;33753;52.912;-7.342;2023-04-15T11:59:00;100681.94;;;15.31;100.00
47985;BME280;33753;52.912;-7.342;2023-04-15T12:01:32;100677.84;;;15.14;100.00
47985;BME280;33753;52.912;-7.342;2023-04-15T12:04:01;100672.78;;;15.11;100.00
47985;BME280;33753;52.912;-7.342;2023-04-15T12:06:32;100679.97;;;14.97;100.00
47985;BME280;33753;52.912;-7.342;2023-04-15T12:09:07;100670.38;;;15.01;100.00
47985;BME280;33753;52.912;-7.342;2023-04-15T12:11:41;100660.22;;;14.88;100.00
47985;BME280;33753;52.912;-7.342;2023-04-15T12:14:12;100664.25;;;14.92;100.00
47985;BME280;33753;52.912;-7.342;2023-04-15T12:16:44;100667.28;;;14.82;100.00
47985;BME280;33753;52.912;-7.342;2023-04-15T12:19:22;100661.38;;;14.79;100.00
47985;BME280;33753;52.912;-7.342;2023-04-15T12:21:58;100657.72;;;14.72;100.00
47985;BME280;33753;52.912;-7.342;2023-04-15T12:24:30;100668.06;;;14.40;100.00
47985;BME280;33753;52.912;-7.342;2023-04-15T12:27:01;100664.13;;;14.27;100.00
47985;BME280;33753;52.912;-7.342;2023-04-15T12:29:31;100659.69;;;14.05;100.00
47985;BME280;33753;52.912;-7.342;2023-04-15T12:32:04;100666.88;;;14.12;100.00
47985;BME280;33753;52.912;-7.342;2023-04-15T12:34:34;100670.56;;;14.05;100.00
47985;BME280;33753;52.912;-7.342;2023-04-15T12:37:05;100671.66;;;14.25;100.00
47985;BME280;33753;52.912;-7.342;2023-04-15T12:39:36;100666.97;;;14.04;100.00
47985;BME280;33753;52.912;-7.342;2023-04-15T12:42:06;100665.97;;;14.05;100.00
47985;BME280;33753;52.912;-7.342;2023-04-15T12:44:35;100671.97;;;13.86;100.00
47985;BME280;33753;52.912;-7.342;2023-04-15T12:47:04;100672.34;;;13.82;100.00
47985;BME280;33753;52.912;-7.342;2023-04-15T12:49:32;100667.56;;;13.85;100.00
47985;BME280;33753;52.912;-7.342;2023-04-15T12:52:04;100676.94;;;13.82;100.00
47985;BME280;33753;52.912;-7.342;2023-04-15T12:54:32;100670.28;;;13.70;100.00